Time;durP1;ratioP1;P1;durP2;ratioP2;P2;SDS_P1;SDS_P2;PMS_P1;PMS_P2;Temp;Humidity;BMP_temperature;BMP_pressure;BME280_temperature;BME280_humidity;BME280_pressure;Samples;Min_cycle;Max_cycle;Signal;HPM_P1;HPM_P2
2022/10/29 06:13:36;;;;;;;27.22;16.17;;;;;;;8.74;100.00;99970.41;1721892;82;20889;-75
2022/10/29 06:16:05;;;;;;;28.45;15.78;;;;;;;8.88;100.00;99967.22;1702295;82;20954;-74
2022/10/29 06:18:33;;;;;;;31.15;16.93;;;;;;;9.04;100.00;99961.55;1699249;84;20889;-74
2022/10/29 06:20:59;;;;;;;27.17;15.98;;;;;;;9.41;100.00;99974.39;1697631;84;21732;-76
2022/10/29 06:23:31;;;;;;;30.77;15.68;;;;;;;9.86;100.00;99963.22;1701750;84;20916;-77
2022/10/29 06:26:02;;;;;;;25.40;14.98;;;;;;;10.15;100.00;99965.16;1697644;83;20928;-71
2022/10/29 06:28:33;;;;;;;29.10;14.55;;;;;;;10.29;100.00;99963.84;1703621;83;21482;-73
2022/10/29 06:31:05;;;;;;;24.80;14.98;;;;;;;10.44;100.00;99958.03;1703381;83;21475;-78
2022/10/29 06:33:38;;;;;;;24.75;14.58;;;;;;;10.78;100.00;99962.30;1679962;83;21092;-80
2022/10/29 06:36:10;;;;;;;;;;;;;;;11.33;100.00;99952.53;1681470;84;21079;-79
2022/10/29 06:38:38;;;;;;;26.35;13.30;;;;;;;11.89;100.00;99944.55;1704456;82;20126;-80
2022/10/29 06:41:10;;;;;;;29.65;12.20;;;;;;;12.29;100.00;99932.73;1702744;84;20893;-81
2022/10/29 06:43:45;;;;;;;21.93;12.43;;;;;;;12.53;100.00;99931.21;1704715;83;20971;-76
2022/10/29 06:46:13;;;;;;;23.77;13.28;;;;;;;12.66;100.00;99937.73;1702171;82;20892;-78
2022/10/29 06:48:46;;;;;;;26.05;13.35;;;;;;;12.65;100.00;99940.24;1678526;83;20988;-78
2022/10/29 06:51:23;;;;;;;17.62;11.48;;;;;;;12.50;100.00;99942.87;1699048;82;20947;-78
2022/10/29 06:53:52;;;;;;;20.62;11.60;;;;;;;12.32;100.00;99941.73;1704427;82;21070;-75
2022/10/29 06:56:22;;;;;;;30.82;12.60;;;;;;;12.15;100.00;99947.41;1705218;82;21566;-82
2022/10/29 06:58:53;;;;;;;23.75;13.00;;;;;;;12.00;100.00;99947.03;1708549;82;21270;-76
2022/10/29 07:01:23;;;;;;;20.02;11.00;;;;;;;11.82;100.00;99932.36;1711303;82;20941;-79
2022/10/29 07:03:53;;;;;;;20.25;11.45;;;;;;;11.69;100.00;99933.21;1690687;82;21004;-74
2022/10/29 07:06:20;;;;;;;21.50;12.80;;;;;;;11.58;100.00;99932.66;1723027;82;20975;-76
2022/10/29 07:08:51;;;;;;;21.10;12.07;;;;;;;11.50;100.00;99943.87;1723440;82;21000;-73
2022/10/29 07:11:21;;;;;;;23.95;11.97;;;;;;;11.45;100.00;99939.05;1691341;82;20964;-73
2022/10/29 07:13:53;;;;;;;26.73;12.47;;;;;;;11.38;100.00;99942.80;1707016;83;20951;-74
2022/10/29 07:16:27;;;;;;;22.37;12.05;;;;;;;11.32;100.00;99935.23;1691397;82;33656;-75
2022/10/29 07:18:58;;;;;;;22.85;11.97;;;;;;;11.31;100.00;99931.42;1681230;83;21456;-75
2022/10/29 07:21:38;;;;;;;24.47;12.82;;;;;;;11.38;100.00;99929.05;1709407;82;20932;-75
2022/10/29 07:24:02;;;;;;;25.90;13.35;;;;;;;11.63;100.00;99927.03;1707755;82;21898;-73
2022/10/29 07:26:34;;;;;;;27.73;11.68;;;;;;;11.93;100.00;99924.09;1711118;82;20995;-74
2022/10/29 07:29:04;;;;;;;24.05;12.05;;;;;;;12.15;100.00;99926.77;1714080;82;21024;-75
2022/10/29 07:31:38;;;;;;;20.65;11.35;;;;;;;12.37;100.00;99927.83;1709708;82;20904;-75
2022/10/29 07:34:07;;;;;;;24.77;12.05;;;;;;;12.62;100.00;99928.48;1700921;83;21567;-76
2022/10/29 07:36:43;;;;;;;19.23;11.03;;;;;;;12.93;100.00;99938.02;1705390;82;21144;-76
2022/10/29 07:39:12;;;;;;;24.63;11.60;;;;;;;13.27;100.00;99927.63;1701149;83;20889;-74
2022/10/29 07:41:41;;;;;;;20.17;10.90;;;;;;;13.49;100.00;99922.48;1702021;83;20968;-76
2022/10/29 07:44:15;;;;;;;21.77;11.10;;;;;;;13.68;100.00;99928.46;1675878;83;21456;-71
2022/10/29 07:46:45;;;;;;;23.77;11.48;;;;;;;14.05;99.74;99919.98;1701423;83;20956;-74
2022/10/29 07:49:15;;;;;;;23.87;12.13;;;;;;;14.52;95.98;99925.49;1724283;82;21763;-74
2022/10/29 07:51:49;;;;;;;19.80;10.43;;;;;;;14.95;92.78;99914.77;1720537;82;21039;-74
2022/10/29 07:54:19;;;;;;;19.40;10.00;;;;;;;15.37;90.12;99912.79;1666120;84;21416;-73
2022/10/29 07:56:50;;;;;;;20.97;10.50;;;;;;;15.75;87.10;99902.34;1712109;81;20912;-73
2022/10/29 07:59:22;;;;;;;24.40;10.60;;;;;;;16.09;83.25;99901.16;1717663;82;20927;-73
2022/10/29 08:01:52;;;;;;;20.97;11.00;;;;;;;16.35;83.25;99903.58;1693288;83;21554;-73
2022/10/29 08:04:22;;;;;;;16.37;10.20;;;;;;;16.58;79.08;99903.13;1717721;82;20964;-75
2022/10/29 08:06:53;;;;;;;16.57;9.50;;;;;;;16.63;79.16;99899.54;1714224;83;20967;-77
2022/10/29 08:09:27;;;;;;;17.15;9.28;;;;;;;16.89;77.19;99890.05;1702147;82;28700;-76
2022/10/29 08:11:55;;;;;;;;;;;;;;;16.98;76.47;99890.14;1717743;82;20976;-77
2022/10/29 08:14:22;;;;;;;15.98;8.55;;;;;;;17.13;76.89;99893.58;1712216;82;20533;-79
2022/10/29 08:16:53;;;;;;;15.98;9.33;;;;;;;17.34;75.06;99891.17;1711629;82;21478;-75
2022/10/29 08:19:22;;;;;;;15.20;9.10;;;;;;;17.65;74.13;99891.85;1701983;83;20964;-75
2022/10/29 08:21:50;;;;;;;18.48;9.33;;;;;;;17.91;73.33;99879.68;1722659;82;20983;-74
2022/10/29 08:24:18;;;;;;;18.80;9.35;;;;;;;18.04;71.46;99869.30;1722201;82;20928;-74
2022/10/29 08:26:45;;;;;;;17.15;9.23;;;;;;;17.89;70.77;99877.06;1719666;82;21128;-74
2022/10/29 08:29:11;;;;;;;19.32;8.43;;;;;;;17.70;72.07;99871.61;1721911;82;21506;-74
2022/10/29 08:31:37;;;;;;;16.27;9.50;;;;;;;17.64;71.78;99862.48;1717714;82;20861;-73
2022/10/29 08:34:04;;;;;;;13.55;7.83;;;;;;;17.65;72.35;99863.54;1709434;83;20936;-74
2022/10/29 08:36:30;;;;;;;18.95;8.43;;;;;;;17.92;71.10;99867.98;1711122;82;21543;-73
2022/10/29 08:38:57;;;;;;;19.50;8.40;;;;;;;18.22;70.80;99864.20;1713188;82;21122;-81
2022/10/29 08:41:48;;;;;;;15.83;8.73;;;;;;;18.54;69.48;99860.78;1703306;83;20944;-82
2022/10/29 08:44:49;;;;;;;17.23;8.50;;;;;;;18.81;68.59;99852.91;1691864;84;20877;-74
2022/10/29 08:47:20;;;;;;;16.20;7.97;;;;;;;19.04;68.15;99855.20;1665957;85;21422;-79
2022/10/29 08:50:01;;;;;;;15.95;7.58;;;;;;;19.36;67.31;99859.22;1663580;84;20916;-78
2022/10/29 08:52:30;;;;;;;13.25;8.15;;;;;;;19.52;65.87;99855.80;1657861;85;21560;-81
2022/10/29 08:55:20;;;;;;;15.83;7.85;;;;;;;19.54;64.65;99858.22;1638206;84;20995;-77
2022/10/29 08:57:55;;;;;;;12.75;7.25;;;;;;;19.54;64.46;99838.14;1674628;84;20928;-76
2022/10/29 09:00:30;;;;;;;12.85;6.87;;;;;;;19.61;64.54;99841.64;1663460;85;21011;-79
2022/10/29 09:02:57;;;;;;;17.60;8.73;;;;;;;19.64;65.22;99831.94;1654994;85;20948;-79
2022/10/29 09:05:32;;;;;;;11.18;6.95;;;;;;;19.52;65.44;99831.33;1658190;84;21796;-80
2022/10/29 09:08:24;;;;;;;14.87;8.00;;;;;;;19.31;66.10;99830.28;1662775;85;21079;-82
2022/10/29 09:11:00;;;;;;;13.32;7.15;;;;;;;19.08;67.26;99835.77;1664557;84;24750;-81
2022/10/29 09:13:51;;;;;;;11.57;6.67;;;;;;;18.88;68.19;99829.42;1657694;84;20940;-74
2022/10/29 09:16:46;;;;;;;14.28;7.45;;;;;;;18.77;69.03;99828.38;1657681;85;21575;-73
2022/10/29 09:19:41;;;;;;;12.15;6.67;;;;;;;18.59;69.66;99829.34;1649648;85;21208;-77
2022/10/29 09:22:27;;;;;;;13.90;6.72;;;;;;;18.27;70.65;99816.69;1663945;85;21030;-74
2022/10/29 09:25:37;;;;;;;12.98;6.58;;;;;;;17.95;72.16;99810.34;1661631;85;21476;-73
2022/10/29 09:29:02;;;;;;;14.73;7.03;;;;;;;17.74;73.01;99801.72;1597122;89;21500;-81
2022/10/29 09:31:42;;;;;;;13.83;7.12;;;;;;;17.68;74.95;99802.34;1600410;89;20992;-85
2022/10/29 09:34:16;;;;;;;10.45;6.45;;;;;;;17.79;75.02;99804.23;1650549;83;20932;-83
2022/10/29 09:36:45;;;;;;;11.50;6.60;;;;;;;17.85;75.51;99806.16;1658186;85;21004;-83
2022/10/29 09:39:15;;;;;;;14.73;6.92;;;;;;;17.99;75.54;99799.54;1651142;83;21594;-79
2022/10/29 09:41:42;;;;;;;10.88;6.35;;;;;;;18.10;74.29;99789.50;1657559;83;21000;-81
2022/10/29 09:44:23;;;;;;;16.70;8.08;;;;;;;18.07;74.21;99794.97;1670282;84;20889;-72
2022/10/29 09:47:01;;;;;;;14.65;7.45;;;;;;;18.02;74.51;99795.23;1667133;84;21247;-75
2022/10/29 09:50:05;;;;;;;14.60;6.92;;;;;;;18.21;75.07;99797.28;1649835;83;20893;-83
2022/10/29 09:52:34;;;;;;;14.38;7.83;;;;;;;18.45;73.68;99792.31;1647260;84;21008;-80
2022/10/29 09:55:04;;;;;;;13.88;7.58;;;;;;;18.72;74.18;99780.80;1672079;83;21038;-71
2022/10/29 09:57:32;;;;;;;13.18;7.55;;;;;;;19.13;73.04;99788.18;1656114;83;21138;-74
2022/10/29 10:00:06;;;;;;;11.73;7.42;;;;;;;19.52;71.31;99775.64;1626973;84;21530;-73
2022/10/29 10:02:54;;;;;;;13.88;7.05;;;;;;;19.75;70.35;99773.64;1662680;83;21087;-74
2022/10/29 10:05:25;;;;;;;16.90;7.87;;;;;;;19.79;68.83;99770.33;1619607;85;20965;-73
2022/10/29 10:08:10;;;;;;;15.50;8.10;;;;;;;19.78;68.56;99767.33;1635208;86;21605;-73
2022/10/29 10:10:56;;;;;;;16.23;7.17;;;;;;;19.71;65.50;99771.38;1658592;85;21022;-73
2022/10/29 10:13:31;;;;;;;15.38;7.95;;;;;;;19.46;65.93;99767.56;1660574;85;21563;-87
2022/10/29 10:16:02;;;;;;;15.40;8.35;;;;;;;19.23;67.78;99767.30;1660702;84;21832;-73
2022/10/29 10:18:39;;;;;;;13.72;7.95;;;;;;;19.19;68.46;99762.25;1662892;83;21040;-72
2022/10/29 10:21:24;;;;;;;15.03;8.55;;;;;;;19.16;68.72;99755.45;1638371;85;21526;-74
2022/10/29 10:23:52;;;;;;;15.03;9.23;;;;;;;19.06;68.31;99756.07;1640443;85;21080;-73
2022/10/29 10:26:50;;;;;;;52.25;24.15;;;;;;;18.96;69.09;99738.58;1667095;85;21464;-76
2022/10/29 10:29:11;;;;;;;19.57;10.82;;;;;;;19.11;69.00;99735.68;1653858;83;21576;-72
2022/10/29 10:31:40;;;;;;;29.90;13.40;;;;;;;19.54;68.04;99736.50;1656441;83;20916;-72
2022/10/29 10:34:14;;;;;;;25.65;11.97;;;;;;;19.89;66.79;99736.27;1654314;85;21168;-69
2022/10/29 10:36:48;;;;;;;17.45;9.05;;;;;;;20.25;65.13;99722.27;1647873;84;21067;-70
2022/10/29 10:39:30;;;;;;;21.65;10.75;;;;;;;20.43;64.85;99721.96;1651231;84;21153;-71
2022/10/29 10:41:59;;;;;;;14.87;7.83;;;;;;;20.52;64.21;99712.52;1657161;85;21000;-72
2022/10/29 10:44:26;;;;;;;22.22;10.93;;;;;;;20.31;63.15;99704.04;1665310;84;21126;-70
2022/10/29 10:46:54;;;;;;;22.60;10.30;;;;;;;19.98;64.42;99703.97;1672178;85;21093;-71
2022/10/29 10:49:34;;;;;;;20.43;9.88;;;;;;;19.63;65.84;99702.84;1661584;84;21067;-72
2022/10/29 10:52:05;;;;;;;14.40;8.58;;;;;;;19.31;67.20;99711.99;1656434;84;21862;-71
2022/10/29 10:54:44;;;;;;;13.72;5.90;;;;;;;19.00;68.90;99713.83;1660171;85;20871;-70
2022/10/29 10:57:18;;;;;;;17.27;7.47;;;;;;;18.71;69.73;99723.58;1671585;83;21035;-72
2022/10/29 11:00:02;;;;;;;13.48;8.20;;;;;;;18.42;71.58;99715.21;1675608;84;21073;-72
2022/10/29 11:02:39;;;;;;;24.98;8.93;;;;;;;18.19;73.64;99722.62;1673026;82;20932;-71
2022/10/29 11:05:21;;;;;;;22.52;10.05;;;;;;;17.96;74.91;99706.41;1670796;84;21244;-73
2022/10/29 11:08:00;;;;;;;;;;;;;;;17.84;76.74;99694.05;1657926;85;21462;-74
2022/10/29 11:10:32;;;;;;;34.13;12.88;;;;;;;17.73;77.80;99691.82;1679864;84;20094;-72
2022/10/29 11:13:02;;;;;;;23.85;11.22;;;;;;;17.69;79.54;99694.28;1691545;84;20932;-78
2022/10/29 11:15:42;;;;;;;28.83;13.15;;;;;;;17.70;80.48;99694.51;1689365;83;21013;-81
2022/10/29 11:18:29;;;;;;;71.50;28.70;;;;;;;17.73;81.03;99694.59;1686758;84;21167;-76
2022/10/29 11:21:22;;;;;;;81.17;34.55;;;;;;;17.75;81.35;99685.91;1673199;84;21424;-79
2022/10/29 11:24:16;;;;;;;35.78;17.17;;;;;;;17.73;81.74;99676.55;1673323;85;21535;-80
2022/10/29 11:27:03;;;;;;;49.88;25.20;;;;;;;17.69;81.65;99681.21;1685248;84;21507;-80
2022/10/29 11:29:50;;;;;;;67.15;32.65;;;;;;;17.67;81.62;99672.44;1674586;85;21098;-79
2022/10/29 11:32:31;;;;;;;47.88;24.52;;;;;;;17.62;82.12;99665.73;1669351;83;21197;-77
2022/10/29 11:35:17;;;;;;;39.38;21.05;;;;;;;17.54;81.85;99657.02;1692080;83;21095;-80
2022/10/29 11:38:06;;;;;;;38.48;18.95;;;;;;;17.45;82.13;99655.00;1658586;84;21483;-82
2022/10/29 11:40:53;;;;;;;75.85;34.25;;;;;;;17.42;83.02;99652.95;1678856;83;20989;-82
2022/10/29 11:43:20;;;;;;;63.68;29.42;;;;;;;17.50;82.90;99658.31;1703338;83;20908;-86
2022/10/29 11:46:07;;;;;;;42.73;19.00;;;;;;;17.67;82.14;99648.03;1694309;82;21101;-82
2022/10/29 11:49:14;;;;;;;32.55;15.60;;;;;;;17.76;81.16;99650.03;1677387;84;20992;-83
2022/10/29 11:52:09;;;;;;;21.77;11.95;;;;;;;17.73;80.41;99641.84;1678278;84;21217;-82
2022/10/29 11:55:05;;;;;;;33.25;13.00;;;;;;;17.64;80.94;99639.81;1681564;84;21109;-80
2022/10/29 11:57:52;;;;;;;41.88;17.77;;;;;;;17.62;81.26;99642.73;1683341;84;21415;-82
2022/10/29 12:00:26;;;;;;;35.38;16.75;;;;;;;17.61;81.43;99630.02;1684366;84;21744;-82
2022/10/29 12:03:19;;;;;;;21.30;11.50;;;;;;;17.66;81.36;99625.02;1664227;85;21058;-77
2022/10/29 12:06:08;;;;;;;22.25;11.18;;;;;;;17.71;81.08;99618.38;1583302;88;21157;-76
2022/10/29 12:09:13;;;;;;;21.05;10.05;;;;;;;17.72;80.89;99618.02;1597057;88;20995;-75
2022/10/29 12:12:02;;;;;;;19.75;10.55;;;;;;;17.74;80.37;99612.91;1641371;85;21042;-75
2022/10/29 12:15:22;;;;;;;15.72;7.83;;;;;;;17.69;80.39;99614.58;1663136;84;21182;-75
2022/10/29 12:17:58;;;;;;;19.40;8.33;;;;;;;17.63;80.18;99602.70;1662570;85;21552;-69
2022/10/29 12:21:00;;;;;;;13.00;7.33;;;;;;;17.62;81.08;99591.38;1612617;86;21503;-74
2022/10/29 12:23:55;;;;;;;22.90;8.30;;;;;;;17.78;81.34;99592.98;1655099;84;20931;-72
2022/10/29 12:26:38;;;;;;;21.77;9.10;;;;;;;17.97;80.29;99590.78;1658595;85;21006;-71
2022/10/29 12:29:42;;;;;;;13.85;8.53;;;;;;;18.11;79.17;99578.59;1663674;84;21148;-71
2022/10/29 12:32:31;;;;;;;25.90;12.30;;;;;;;18.07;79.03;99575.52;1654360;83;20996;-73
2022/10/29 12:35:19;;;;;;;24.60;11.57;;;;;;;17.90;79.46;99569.83;1659629;84;21133;-71
2022/10/29 12:37:57;;;;;;;17.95;9.28;;;;;;;17.75;79.79;99577.04;1656526;84;21004;-72
2022/10/29 12:40:37;;;;;;;16.12;8.53;;;;;;;17.61;79.87;99590.56;1637985;84;20953;-68
2022/10/29 12:43:31;;;;;;;16.32;8.45;;;;;;;17.49;80.21;99580.96;1636510;84;21762;-71
2022/10/29 12:46:19;;;;;;;14.18;7.50;;;;;;;17.40;80.63;99578.97;1667584;84;21032;-71
2022/10/29 12:49:16;;;;;;;15.53;7.65;;;;;;;17.36;80.99;99560.84;1659188;85;21081;-72
2022/10/29 12:52:02;;;;;;;14.10;7.62;;;;;;;17.39;80.40;99556.54;1641119;85;21465;-71
2022/10/29 12:54:46;;;;;;;17.32;7.70;;;;;;;17.44;80.63;99553.48;1656026;85;21138;-72
2022/10/29 12:57:19;;;;;;;17.42;7.78;;;;;;;17.45;80.03;99553.71;1671645;84;21286;-72
2022/10/29 12:59:49;;;;;;;26.70;12.03;;;;;;;17.45;79.76;99560.65;1656894;85;21406;-72
2022/10/29 13:02:42;;;;;;;22.40;8.25;;;;;;;17.43;80.04;99549.11;1659200;84;21040;-72
2022/10/29 13:05:12;;;;;;;21.60;8.38;;;;;;;17.45;79.93;99546.77;1643138;84;21002;-72
2022/10/29 13:07:50;;;;;;;17.23;6.92;;;;;;;17.54;79.93;99536.86;1636192;84;21591;-71
2022/10/29 13:10:36;;;;;;;12.25;6.53;;;;;;;17.57;79.35;99538.33;1650012;84;21809;-72
2022/10/29 13:13:16;;;;;;;20.92;7.90;;;;;;;17.58;78.57;99526.06;1647290;83;21001;-72
2022/10/29 13:15:50;;;;;;;18.35;8.25;;;;;;;17.61;77.94;99518.98;1664877;84;21564;-73
2022/10/29 13:18:27;;;;;;;15.20;8.35;;;;;;;17.64;77.49;99510.73;1662965;84;21174;-72
2022/10/29 13:20:59;;;;;;;15.53;8.50;;;;;;;17.63;77.40;99509.12;1645505;85;21429;-72
2022/10/29 13:23:34;;;;;;;14.47;6.85;;;;;;;17.59;77.42;99504.66;1634651;85;21268;-72
2022/10/29 13:26:02;;;;;;;26.37;11.53;;;;;;;17.54;77.37;99495.23;1670559;85;21249;-73
2022/10/29 13:28:42;;;;;;;27.35;12.33;;;;;;;17.46;77.70;99494.27;1652397;84;21034;-72
2022/10/29 13:31:22;;;;;;;36.88;16.62;;;;;;;17.39;77.92;99495.50;1668592;84;20998;-74
2022/10/29 13:33:54;;;;;;;27.00;13.83;;;;;;;17.31;78.12;99494.56;1656863;85;20976;-74
2022/10/29 13:36:26;;;;;;;27.75;12.13;;;;;;;17.23;78.45;99494.76;1654307;85;21172;-76
2022/10/29 13:39:04;;;;;;;31.30;15.72;;;;;;;17.17;78.90;99488.69;1653379;85;21557;-77
2022/10/29 13:41:43;;;;;;;16.80;8.25;;;;;;;17.10;79.33;99485.16;1647174;85;21581;-77
2022/10/29 13:44:21;;;;;;;23.98;11.40;;;;;;;17.06;79.51;99479.31;1662941;84;21003;-78
2022/10/29 13:47:04;;;;;;;17.48;9.40;;;;;;;16.99;79.49;99477.75;1669483;84;21010;-75
2022/10/29 13:49:45;;;;;;;23.18;10.93;;;;;;;16.94;79.82;99478.83;1644552;85;23126;-76
2022/10/29 13:52:22;;;;;;;20.80;9.63;;;;;;;16.90;80.34;99482.09;1647870;83;21034;-85
2022/10/29 13:55:08;;;;;;;36.42;15.45;;;;;;;16.84;80.51;99478.80;1658247;84;21143;-80
2022/10/29 13:57:46;;;;;;;25.23;10.38;;;;;;;16.80;80.95;99477.90;1667899;84;21042;-76
2022/10/29 14:00:22;;;;;;;23.40;11.73;;;;;;;16.75;81.04;99477.39;1673096;85;20914;-76
2022/10/29 14:03:01;;;;;;;20.68;10.78;;;;;;;16.72;81.26;99463.67;1637168;85;21003;-76
2022/10/29 14:05:55;;;;;;;17.73;8.88;;;;;;;16.67;81.43;99457.02;1640737;84;21012;-76
2022/10/29 14:08:36;;;;;;;20.40;8.80;;;;;;;16.63;81.47;99464.98;1662231;84;21089;-77
2022/10/29 14:11:18;;;;;;;18.77;9.20;;;;;;;16.59;81.92;99462.13;1648683;83;21468;-76
2022/10/29 14:13:50;;;;;;;14.93;7.97;;;;;;;16.55;82.37;99458.45;1645763;85;20946;-76
2022/10/29 14:16:22;;;;;;;19.48;8.10;;;;;;;16.50;82.65;99449.03;1659429;85;21874;-77
2022/10/29 14:18:53;;;;;;;11.45;6.40;;;;;;;16.47;83.30;99449.73;1654376;85;21641;-77
2022/10/29 14:21:23;;;;;;;12.18;6.53;;;;;;;16.41;83.94;99432.58;1660294;84;21012;-76
2022/10/29 14:24:02;;;;;;;20.23;8.23;;;;;;;16.36;84.23;99442.54;1660024;85;21103;-76
2022/10/29 14:26:37;;;;;;;15.93;6.75;;;;;;;16.31;84.83;99445.57;1673263;85;21032;-77
2022/10/29 14:29:24;;;;;;;13.93;6.78;;;;;;;16.26;85.32;99449.19;1646775;84;21738;-75
2022/10/29 14:32:10;;;;;;;27.50;10.38;;;;;;;16.22;85.81;99445.52;1653482;85;20970;-77
2022/10/29 14:34:41;;;;;;;21.27;10.13;;;;;;;16.17;86.35;99453.53;1658756;85;20984;-78
2022/10/29 14:37:20;;;;;;;20.80;10.05;;;;;;;16.12;86.62;99461.52;1669339;83;20992;-78
2022/10/29 14:39:52;;;;;;;16.57;8.08;;;;;;;16.08;87.23;99459.81;1681231;84;21022;-74
2022/10/29 14:42:36;;;;;;;35.10;15.40;;;;;;;16.04;87.10;99465.83;1671589;85;20924;-75
2022/10/29 14:45:21;;;;;;;26.95;11.78;;;;;;;16.01;87.15;99454.08;1668887;83;21003;-75
2022/10/29 14:47:58;;;;;;;23.27;8.60;;;;;;;16.00;86.99;99453.28;1685455;83;21542;-75
2022/10/29 14:50:26;;;;;;;23.90;10.90;;;;;;;16.00;86.70;99458.01;1644740;84;21028;-75
2022/10/29 14:53:05;;;;;;;21.75;8.73;;;;;;;16.00;86.69;99451.09;1611772;87;20924;-76
2022/10/29 14:55:37;;;;;;;24.90;8.25;;;;;;;15.99;86.94;99449.48;1621087;86;21579;-77
2022/10/29 14:58:12;;;;;;;18.35;8.38;;;;;;;15.97;86.74;99454.56;1612229;88;21153;-76
2022/10/29 15:00:57;;;;;;;14.07;7.65;;;;;;;15.96;86.51;99444.65;1626651;87;21067;-76
2022/10/29 15:03:34;;;;;;;15.05;6.92;;;;;;;15.96;86.20;99452.95;1632495;87;20997;-75
2022/10/29 15:06:23;;;;;;;24.12;9.45;;;;;;;15.98;85.92;99460.33;1603373;88;21597;-73
2022/10/29 15:09:06;;;;;;;20.95;9.50;;;;;;;15.99;86.89;99459.17;1620003;87;21078;-75
2022/10/29 15:11:39;;;;;;;19.55;9.95;;;;;;;15.94;87.73;99458.84;1618360;87;21556;-74
2022/10/29 15:14:39;;;;;;;17.65;7.50;;;;;;;15.89;88.23;99461.06;1642950;85;21044;-78
2022/10/29 15:17:11;;;;;;;13.75;6.72;;;;;;;15.82;88.81;99451.40;1586019;88;21483;-76
2022/10/29 15:19:46;;;;;;;16.07;6.62;;;;;;;15.76;88.90;99448.66;1617806;87;21600;-77
2022/10/29 15:22:36;;;;;;;13.85;6.03;;;;;;;15.72;89.11;99447.75;1618269;87;21832;-72
2022/10/29 15:25:14;;;;;;;14.90;6.92;;;;;;;15.70;89.16;99447.30;1670866;84;21542;-73
2022/10/29 15:27:44;;;;;;;17.10;6.08;;;;;;;15.67;89.04;99442.47;1678100;84;21019;-73
2022/10/29 15:30:33;;;;;;;15.60;6.47;;;;;;;15.67;89.16;99439.70;1682729;84;21002;-77
2022/10/29 15:33:10;;;;;;;17.87;6.97;;;;;;;15.66;88.93;99435.32;1679675;84;21019;-73
2022/10/29 15:35:45;;;;;;;21.52;7.20;;;;;;;15.65;88.79;99435.09;1670231;84;21323;-75
2022/10/29 15:38:17;;;;;;;21.37;6.70;;;;;;;15.65;88.42;99430.95;1657120;84;20960;-78
2022/10/29 15:40:48;;;;;;;16.57;5.85;;;;;;;15.66;88.20;99428.41;1630413;85;21617;-78
2022/10/29 15:43:28;;;;;;;12.82;6.20;;;;;;;15.67;87.97;99436.93;1619798;85;21043;-73
2022/10/29 15:46:01;;;;;;;12.73;5.87;;;;;;;15.67;87.73;99432.78;1672420;84;21014;-72
2022/10/29 15:48:41;;;;;;;16.55;5.75;;;;;;;15.67;87.49;99432.78;1656034;84;21006;-73
2022/10/29 15:51:16;;;;;;;11.33;5.30;;;;;;;15.66;87.39;99433.94;1679949;85;21167;-72
2022/10/29 15:53:45;;;;;;;14.75;7.45;;;;;;;15.66;87.50;99436.70;1678536;85;21011;-72
2022/10/29 15:56:12;;;;;;;14.45;6.67;;;;;;;15.65;87.13;99424.60;1678045;85;21557;-74
2022/10/29 15:58:44;;;;;;;20.20;7.70;;;;;;;15.63;86.82;99418.04;1654657;85;21112;-73
2022/10/29 16:01:18;;;;;;;14.55;7.70;;;;;;;15.63;86.80;99416.66;1681608;84;21469;-72
2022/10/29 16:03:46;;;;;;;14.80;7.53;;;;;;;15.62;86.84;99403.98;1662621;84;22357;-73
2022/10/29 16:06:17;;;;;;;17.95;7.05;;;;;;;15.59;86.62;99398.37;1677290;85;21027;-71
2022/10/29 16:08:54;;;;;;;15.05;7.08;;;;;;;15.58;86.59;99405.87;1669977;84;21111;-72
2022/10/29 16:11:23;;;;;;;17.73;8.93;;;;;;;15.56;86.49;99405.38;1676816;85;21610;-75
2022/10/29 16:13:53;;;;;;;16.07;6.50;;;;;;;15.55;86.47;99406.55;1645863;85;21629;-72
2022/10/29 16:16:27;;;;;;;16.37;6.80;;;;;;;15.52;86.15;99396.98;1672670;85;20987;-74
2022/10/29 16:19:01;;;;;;;21.33;7.53;;;;;;;15.52;86.25;99396.18;1674242;85;20948;-73
2022/10/29 16:21:32;;;;;;;15.88;7.42;;;;;;;15.48;86.35;99393.31;1673430;85;21079;-73
2022/10/29 16:24:02;;;;;;;13.48;7.15;;;;;;;15.44;86.34;99388.25;1671506;85;21526;-73
2022/10/29 16:26:32;;;;;;;14.38;6.50;;;;;;;15.43;86.45;99389.98;1666462;85;21779;-74
2022/10/29 16:29:02;;;;;;;18.00;7.33;;;;;;;15.41;86.34;99390.92;1649760;85;20972;-73
2022/10/29 16:31:30;;;;;;;17.30;6.70;;;;;;;15.38;86.30;99395.19;1673325;85;21027;-73
2022/10/29 16:34:02;;;;;;;12.03;5.55;;;;;;;15.37;86.32;99392.77;1660198;85;21634;-75
2022/10/29 16:36:34;;;;;;;21.07;6.35;;;;;;;15.36;86.23;99382.30;1682631;83;21007;-73
2022/10/29 16:39:05;;;;;;;11.35;5.97;;;;;;;15.37;85.92;99384.48;1680633;84;21122;-68
2022/10/29 16:41:37;;;;;;;17.85;6.58;;;;;;;15.37;86.01;99381.71;1652076;83;20928;-72
2022/10/29 16:44:07;;;;;;;16.48;6.45;;;;;;;15.37;85.68;99382.52;1648224;84;21100;-72
2022/10/29 16:46:42;;;;;;;14.35;7.15;;;;;;;15.36;85.75;99383.67;1665211;84;21557;-73
2022/10/29 16:49:11;;;;;;;15.00;6.40;;;;;;;15.36;85.74;99382.30;1656016;84;21046;-72
2022/10/29 16:51:38;;;;;;;16.67;6.85;;;;;;;15.34;85.72;99381.84;1653698;85;21242;-73
2022/10/29 16:54:11;;;;;;;15.18;7.78;;;;;;;15.33;85.88;99387.14;1640778;85;21040;-77
2022/10/29 16:56:43;;;;;;;17.77;7.30;;;;;;;15.32;85.89;99377.81;1666268;84;21012;-78
2022/10/29 16:59:15;;;;;;;16.05;7.15;;;;;;;15.30;85.91;99374.59;1659758;85;21008;-75
2022/10/29 17:01:43;;;;;;;15.28;6.62;;;;;;;15.28;85.74;99380.47;1656780;84;20960;-75
2022/10/29 17:04:10;;;;;;;12.93;6.33;;;;;;;15.29;85.48;99376.55;1662407;83;21043;-75
2022/10/29 17:06:38;;;;;;;13.70;6.78;;;;;;;15.30;85.64;99375.40;1722418;82;21500;-75
2022/10/29 17:09:06;;;;;;;27.62;6.95;;;;;;;15.29;85.42;99371.59;1724502;82;21009;-76
2022/10/29 17:11:36;;;;;;;16.12;7.10;;;;;;;15.30;85.22;99354.66;1724116;82;21016;-74
2022/10/29 17:14:09;;;;;;;14.35;6.30;;;;;;;15.31;84.90;99351.31;1705794;82;20987;-74
2022/10/29 17:16:37;;;;;;;14.45;6.25;;;;;;;15.33;84.87;99349.00;1718224;83;21789;-75
2022/10/29 17:19:05;;;;;;;13.98;6.72;;;;;;;15.34;84.70;99352.80;1685579;83;21066;-72
2022/10/29 17:21:32;;;;;;;15.60;6.72;;;;;;;15.34;84.68;99351.41;1660204;85;21488;-73
2022/10/29 17:24:00;;;;;;;14.53;5.53;;;;;;;15.32;84.72;99355.11;1672598;85;21820;-71
2022/10/29 17:26:26;;;;;;;16.23;6.55;;;;;;;15.32;84.72;99352.92;1657074;83;21040;-72
2022/10/29 17:28:53;;;;;;;14.35;6.30;;;;;;;15.33;84.94;99354.53;1661722;84;21533;-74
2022/10/29 17:31:20;;;;;;;10.98;5.70;;;;;;;15.30;84.96;99339.45;1657780;84;21130;-72
2022/10/29 17:33:47;;;;;;;13.80;6.03;;;;;;;15.27;85.18;99342.91;1658233;83;21068;-72
2022/10/29 17:36:14;;;;;;;14.63;6.33;;;;;;;15.23;85.42;99342.01;1674135;85;21028;-72
2022/10/29 17:38:42;;;;;;;13.20;6.53;;;;;;;15.19;85.87;99345.25;1660658;84;21507;-73
2022/10/29 17:41:10;;;;;;;23.77;6.72;;;;;;;15.12;86.04;99329.25;1653201;84;21258;-73
2022/10/29 17:43:37;;;;;;;17.17;6.60;;;;;;;15.06;86.29;99326.52;1674318;84;21083;-73
2022/10/29 17:46:03;;;;;;;17.12;6.92;;;;;;;15.02;86.54;99322.84;1669351;84;21503;-73
2022/10/29 17:48:33;;;;;;;14.90;6.03;;;;;;;14.99;86.84;99325.53;1658774;85;21031;-76
2022/10/29 17:51:01;;;;;;;17.57;6.20;;;;;;;14.96;87.11;99318.73;1665847;84;21054;-74
2022/10/29 17:53:28;;;;;;;22.48;7.00;;;;;;;14.95;87.33;99321.86;1681239;83;21190;-75
2022/10/29 17:55:59;;;;;;;17.25;6.08;;;;;;;14.93;87.49;99334.64;1676016;84;21053;-75
2022/10/29 17:58:26;;;;;;;17.02;6.92;;;;;;;14.94;87.60;99343.73;1673795;84;21542;-74
2022/10/29 18:00:52;;;;;;;14.30;6.33;;;;;;;14.93;87.81;99353.19;1683257;84;21030;-75
2022/10/29 18:03:18;;;;;;;13.28;6.53;;;;;;;14.89;88.02;99344.78;1683695;84;21066;-74
2022/10/29 18:05:46;;;;;;;17.02;6.42;;;;;;;14.85;88.13;99339.15;1686171;83;20948;-72
2022/10/29 18:08:13;;;;;;;15.70;6.50;;;;;;;14.83;88.39;99339.27;1701933;82;20991;-75
2022/10/29 18:10:40;;;;;;;16.17;7.67;;;;;;;14.77;88.50;99336.52;1686201;83;21533;-74
2022/10/29 18:13:07;;;;;;;14.73;7.42;;;;;;;14.73;88.66;99341.94;1687390;84;21066;-75
2022/10/29 18:15:35;;;;;;;18.85;6.72;;;;;;;14.70;89.02;99341.25;1688755;83;21003;-75